createdAt,value
2017-12-01T00:02:07.760Z,75.98
2017-12-01T00:04:35.147Z,75.68
2017-12-01T00:07:02.545Z,75.59
2017-12-01T00:09:29.943Z,75.62
2017-12-01T00:11:57.331Z,75.60
2017-12-01T00:14:24.714Z,75.56
2017-12-01T00:16:52.106Z,75.58
2017-12-01T00:19:19.506Z,75.72
2017-12-01T00:21:46.903Z,75.30
2017-12-01T00:24:14.286Z,74.90
2017-12-01T00:26:41.685Z,75.00
2017-12-01T00:29:09.074Z,75.04
2017-12-01T00:31:36.478Z,75.03
2017-12-01T00:34:03.871Z,74.99
2017-12-01T00:36:31.333Z,74.89
2017-12-01T00:38:58.726Z,74.89
2017-12-01T00:41:26.165Z,74.77
2017-12-01T00:43:53.554Z,74.55
2017-12-01T00:46:20.942Z,74.35
2017-12-01T00:48:48.334Z,74.53
2017-12-01T00:51:15.775Z,75.39
2017-12-01T00:53:43.166Z,75.17
2017-12-01T00:56:10.582Z,74.94
2017-12-01T00:58:37.969Z,74.74
2017-12-01T01:01:05.367Z,74.68
2017-12-01T01:03:32.763Z,74.43
2017-12-01T01:06:00.206Z,74.81
2017-12-01T01:08:27.594Z,74.84
2017-12-01T01:10:55.013Z,75.51
2017-12-01T01:13:22.409Z,75.81
2017-12-01T01:15:49.802Z,76.38
2017-12-01T01:18:17.204Z,76.17
2017-12-01T01:20:44.603Z,76.23
2017-12-01T01:23:12.000Z,76.53
2017-12-01T01:25:39.452Z,76.44
2017-12-01T01:28:06.897Z,77.42
2017-12-01T01:30:34.287Z,78.89
2017-12-01T01:33:01.682Z,79.18
2017-12-01T01:35:29.077Z,79.62
2017-12-01T01:37:56.487Z,80.06
2017-12-01T01:40:23.887Z,80.63
2017-12-01T01:42:51.282Z,81.11
2017-12-01T01:45:18.669Z,81.56
2017-12-01T01:47:46.148Z,81.98
2017-12-01T01:50:13.603Z,81.69
2017-12-01T01:52:41.066Z,81.04
2017-12-01T01:55:08.515Z,80.91
2017-12-01T01:57:35.921Z,80.93
2017-12-01T02:00:03.883Z,81.54
2017-12-01T02:02:31.311Z,81.74
2017-12-01T02:04:58.698Z,82.69
2017-12-01T02:07:26.213Z,82.38
2017-12-01T02:09:53.598Z,82.69
2017-12-01T02:12:21.039Z,82.52
2017-12-01T02:14:48.435Z,83.33
2017-12-01T02:17:15.839Z,83.49
2017-12-01T02:19:43.296Z,82.25
2017-12-01T02:22:10.694Z,81.61
2017-12-01T02:24:38.077Z,82.00
2017-12-01T02:27:05.468Z,81.53
2017-12-01T02:29:32.872Z,81.42
2017-12-01T02:32:00.358Z,80.89
2017-12-01T02:34:27.776Z,80.25
2017-12-01T02:36:55.287Z,80.67
2017-12-01T02:39:22.694Z,82.43
2017-12-01T02:41:50.079Z,83.61
2017-12-01T02:44:17.473Z,84.34
2017-12-01T02:46:44.870Z,84.37
2017-12-01T02:49:12.273Z,84.25
2017-12-01T02:51:39.667Z,83.73
2017-12-01T02:54:07.071Z,82.97
2017-12-01T02:56:34.458Z,84.19
2017-12-01T02:59:01.860Z,84.48
2017-12-01T03:01:29.255Z,84.15
2017-12-01T03:03:56.662Z,83.88
2017-12-01T03:06:24.042Z,83.83
2017-12-01T03:08:51.442Z,84.34
2017-12-01T03:11:18.837Z,84.17
2017-12-01T03:13:46.258Z,84.02
2017-12-01T03:16:13.645Z,84.43
2017-12-01T03:18:41.039Z,84.06
2017-12-01T03:21:08.435Z,83.68
2017-12-01T03:23:35.838Z,83.34
2017-12-01T03:26:04.031Z,83.50
2017-12-01T03:28:31.437Z,84.05
2017-12-01T03:30:58.899Z,83.59
2017-12-01T03:33:26.363Z,82.59
2017-12-01T03:35:53.753Z,81.73
2017-12-01T03:38:21.164Z,81.91
2017-12-01T03:40:48.559Z,82.04
2017-12-01T03:43:15.942Z,81.32
2017-12-01T03:45:43.343Z,81.55
2017-12-01T03:48:10.735Z,81.12
2017-12-01T03:50:38.126Z,81.09
2017-12-01T03:53:05.518Z,80.94
2017-12-01T03:55:32.926Z,80.95
2017-12-01T03:58:00.339Z,81.90
2017-12-01T04:00:27.737Z,81.06
2017-12-01T04:02:55.162Z,80.48
2017-12-01T04:05:22.563Z,80.32
2017-12-01T04:07:49.974Z,80.42
2017-12-01T04:10:17.422Z,80.26
2017-12-01T04:12:44.818Z,80.49
2017-12-01T04:15:12.214Z,79.95
2017-12-01T04:17:39.602Z,79.17
2017-12-01T04:20:07.106Z,78.48
2017-12-01T04:22:34.510Z,77.91
2017-12-01T04:25:01.920Z,77.80
2017-12-01T04:27:29.314Z,78.39
2017-12-01T04:29:56.714Z,80.11
2017-12-01T04:32:24.115Z,80.23
2017-12-01T04:34:51.510Z,80.56
2017-12-01T04:37:18.906Z,81.48
2017-12-01T04:39:46.326Z,81.45
2017-12-01T04:42:13.774Z,80.65
2017-12-01T04:44:41.161Z,79.98
2017-12-01T04:47:08.551Z,80.12
2017-12-01T04:49:35.942Z,79.51
2017-12-01T04:52:03.340Z,79.68
2017-12-01T04:54:30.722Z,79.59
2017-12-01T04:56:58.163Z,79.28
2017-12-01T04:59:25.530Z,79.35
2017-12-01T05:01:52.956Z,78.63
2017-12-01T05:04:20.334Z,78.63
2017-12-01T05:06:47.750Z,78.15
2017-12-01T05:09:15.147Z,77.69
2017-12-01T05:11:42.543Z,77.18
2017-12-01T05:14:09.938Z,77.75
2017-12-01T05:16:37.365Z,77.50
2017-12-01T05:19:04.751Z,76.92
2017-12-01T05:21:32.150Z,77.70
2017-12-01T05:23:59.538Z,77.70
2017-12-01T05:26:26.933Z,77.39
2017-12-01T05:28:54.354Z,77.25
2017-12-01T05:31:21.826Z,77.14
2017-12-01T05:33:49.227Z,76.84
2017-12-01T05:36:16.637Z,76.99
2017-12-01T05:38:44.026Z,77.42
2017-12-01T05:41:11.431Z,77.71
2017-12-01T05:43:38.823Z,79.07
2017-12-01T05:46:06.230Z,79.94
2017-12-01T05:48:33.622Z,81.40
2017-12-01T05:51:01.020Z,81.96
2017-12-01T05:53:28.518Z,82.65
2017-12-01T05:55:55.962Z,82.79
2017-12-01T05:58:23.418Z,82.38
2017-12-01T06:00:50.874Z,82.66
2017-12-01T06:03:18.263Z,82.81
2017-12-01T06:05:45.657Z,82.21
2017-12-01T06:08:13.054Z,82.38
2017-12-01T06:10:40.518Z,82.03
2017-12-01T06:13:08.074Z,81.56
2017-12-01T06:15:35.535Z,81.02
2017-12-01T06:18:02.986Z,80.60
2017-12-01T06:20:30.378Z,79.86
2017-12-01T06:22:57.782Z,79.37
2017-12-01T06:25:25.253Z,78.93
2017-12-01T06:27:52.650Z,78.52
2017-12-01T06:30:20.040Z,78.25
2017-12-01T06:32:47.437Z,77.97
2017-12-01T06:35:14.841Z,78.21
2017-12-01T06:37:42.251Z,78.47
2017-12-01T06:40:09.686Z,78.20
2017-12-01T06:42:37.142Z,77.97
2017-12-01T06:45:04.603Z,77.80
2017-12-01T06:47:32.003Z,77.45
2017-12-01T06:49:59.409Z,77.69
2017-12-01T06:52:26.815Z,77.46
2017-12-01T06:54:54.204Z,77.37
2017-12-01T06:57:21.624Z,77.15
2017-12-01T06:59:49.022Z,76.94
2017-12-01T07:02:16.411Z,76.80
2017-12-01T07:04:43.802Z,76.72
2017-12-01T07:07:11.200Z,76.67
2017-12-01T07:09:38.622Z,76.47
2017-12-01T07:12:06.010Z,76.30
2017-12-01T07:14:33.402Z,76.46
2017-12-01T07:17:00.794Z,76.36
2017-12-01T07:19:28.189Z,76.18
2017-12-01T07:21:55.588Z,76.04
2017-12-01T07:24:23.083Z,76.18
2017-12-01T07:27:02.380Z,76.26
2017-12-01T07:29:29.767Z,76.52
2017-12-01T07:31:57.190Z,76.34
2017-12-01T07:34:24.580Z,76.19
2017-12-01T07:36:51.976Z,76.09
2017-12-01T07:39:19.366Z,76.10
2017-12-01T07:41:46.757Z,76.02
2017-12-01T07:44:16.063Z,75.95
2017-12-01T07:46:43.449Z,76.42
2017-12-01T07:49:10.870Z,76.34
2017-12-01T07:51:38.241Z,76.20
2017-12-01T07:54:05.643Z,76.29
2017-12-01T07:56:33.030Z,76.52
2017-12-01T07:59:00.659Z,76.52
2017-12-01T08:01:28.042Z,76.59
2017-12-01T08:03:55.435Z,76.43
2017-12-01T08:06:22.823Z,76.35
2017-12-01T08:08:50.223Z,76.02
2017-12-01T08:11:17.614Z,76.25
2017-12-01T08:13:45.035Z,76.25
2017-12-01T08:16:24.166Z,76.33
2017-12-01T08:19:02.430Z,76.29
2017-12-01T08:21:41.592Z,76.50
2017-12-01T08:24:20.830Z,76.53
2017-12-01T08:26:48.224Z,76.44
2017-12-01T08:29:15.639Z,76.40
2017-12-01T08:31:43.035Z,76.40
2017-12-01T08:34:10.424Z,76.37
2017-12-01T08:36:37.829Z,76.17
2017-12-01T08:39:05.206Z,76.31
2017-12-01T08:41:32.673Z,76.51
2017-12-01T08:44:00.123Z,76.70
2017-12-01T08:46:27.586Z,76.66
2017-12-01T08:48:55.041Z,76.93
2017-12-01T08:51:22.493Z,77.04
2017-12-01T08:53:49.886Z,77.60
2017-12-01T08:56:17.312Z,77.65
2017-12-01T08:58:44.715Z,78.13
2017-12-01T09:01:12.214Z,78.32
2017-12-01T09:03:39.606Z,79.16
2017-12-01T09:06:07.011Z,78.92
2017-12-01T09:08:34.398Z,78.74
2017-12-01T09:11:01.834Z,78.59
2017-12-01T09:13:29.301Z,78.53
2017-12-01T09:15:56.642Z,78.43
2017-12-01T09:18:24.050Z,77.99
2017-12-01T09:20:51.443Z,77.71
2017-12-01T09:23:18.845Z,77.85
2017-12-01T09:25:46.286Z,77.67
2017-12-01T09:28:13.690Z,77.58
2017-12-01T09:30:41.193Z,77.23
2017-12-01T09:33:08.669Z,77.25
2017-12-01T09:35:36.074Z,77.24
2017-12-01T09:38:03.562Z,76.97
2017-12-01T09:40:30.974Z,76.63
2017-12-01T09:42:58.358Z,76.50
2017-12-01T09:45:25.826Z,76.20
2017-12-01T09:47:53.222Z,76.02
2017-12-01T09:50:20.613Z,76.08
2017-12-01T09:52:48.002Z,76.08
2017-12-01T09:55:15.458Z,76.48
2017-12-01T09:57:42.909Z,76.61
2017-12-01T10:00:10.362Z,76.89
2017-12-01T10:02:37.756Z,76.69
2017-12-01T10:05:05.258Z,76.71
2017-12-01T10:07:32.650Z,76.53
2017-12-01T10:10:00.051Z,76.38
2017-12-01T10:12:27.445Z,76.00
2017-12-01T10:14:54.843Z,76.15
2017-12-01T10:17:22.253Z,76.22
2017-12-01T10:19:49.651Z,76.40
2017-12-01T10:22:17.042Z,75.80
2017-12-01T10:24:44.518Z,75.71
2017-12-01T10:27:11.920Z,75.67
2017-12-01T10:29:39.318Z,75.77
2017-12-01T10:32:06.783Z,76.15
2017-12-01T10:34:34.245Z,76.29
2017-12-01T10:37:01.664Z,75.37
2017-12-01T10:39:29.050Z,75.54
2017-12-01T10:41:56.511Z,75.83
2017-12-01T10:44:23.968Z,76.97
2017-12-01T10:46:51.362Z,76.64
2017-12-01T10:49:18.777Z,76.15
2017-12-01T10:51:46.175Z,76.79
2017-12-01T10:54:13.563Z,76.99
2017-12-01T10:56:40.978Z,75.96
2017-12-01T10:59:08.371Z,75.85
2017-12-01T11:01:35.855Z,75.83
2017-12-01T11:04:03.314Z,75.79
2017-12-01T11:06:30.711Z,75.36
2017-12-01T11:08:58.103Z,75.31
2017-12-01T11:11:25.544Z,75.27
2017-12-01T11:13:52.900Z,75.16
2017-12-01T11:16:20.290Z,76.11
2017-12-01T11:18:47.678Z,77.00
2017-12-01T11:21:15.078Z,77.80
2017-12-01T11:23:42.563Z,78.45
2017-12-01T11:26:10.009Z,78.15
2017-12-01T11:28:37.466Z,78.28
2017-12-01T11:31:04.866Z,78.62
2017-12-01T11:33:32.279Z,77.09
2017-12-01T11:35:59.675Z,76.55
2017-12-01T11:38:27.063Z,76.54
2017-12-01T11:40:54.458Z,76.51
2017-12-01T11:43:21.853Z,76.49
2017-12-01T11:45:49.268Z,76.03
2017-12-01T11:48:16.662Z,75.08
2017-12-01T11:50:44.060Z,74.86
2017-12-01T11:53:11.461Z,74.12
2017-12-01T11:55:38.902Z,73.40
2017-12-01T11:58:06.294Z,74.81
2017-12-01T12:00:35.042Z,75.33
2017-12-01T12:03:02.434Z,75.00
2017-12-01T12:05:29.925Z,74.80
2017-12-01T12:07:57.320Z,74.82
2017-12-01T12:10:24.727Z,74.73
2017-12-01T12:12:52.131Z,75.44
2017-12-01T12:15:19.546Z,75.91
2017-12-01T12:17:46.941Z,76.80
2017-12-01T12:20:14.362Z,77.54
2017-12-01T12:22:41.817Z,78.02
2017-12-01T12:25:09.219Z,78.30
2017-12-01T12:27:36.640Z,78.20
2017-12-01T12:30:04.049Z,78.84
2017-12-01T12:32:32.135Z,79.30
2017-12-01T12:34:59.550Z,79.49
2017-12-01T12:37:26.962Z,79.45
2017-12-01T12:39:54.450Z,80.39
2017-12-01T12:42:21.842Z,80.99
2017-12-01T12:44:49.238Z,81.12
2017-12-01T12:47:16.634Z,81.06
2017-12-01T12:49:44.038Z,81.00
2017-12-01T12:52:11.428Z,80.69
2017-12-01T12:54:38.818Z,80.36
2017-12-01T12:57:06.211Z,80.21
2017-12-01T12:59:33.606Z,79.97
2017-12-01T13:02:01.039Z,80.08
2017-12-01T13:04:28.430Z,79.92
2017-12-01T13:06:55.834Z,79.03
2017-12-01T13:09:23.230Z,79.03
2017-12-01T13:11:50.631Z,78.63
2017-12-01T13:14:18.031Z,78.10
2017-12-01T13:16:45.428Z,78.00
2017-12-01T13:19:12.848Z,77.68
2017-12-01T13:21:40.230Z,77.40
2017-12-01T13:24:07.639Z,77.94
2017-12-01T13:26:35.056Z,78.25
2017-12-01T13:29:02.456Z,79.12
2017-12-01T13:31:29.842Z,78.94
2017-12-01T13:33:57.352Z,78.34
2017-12-01T13:36:24.738Z,77.78
2017-12-01T13:38:52.134Z,77.78
2017-12-01T13:41:19.524Z,77.57
2017-12-01T13:43:46.918Z,77.56
2017-12-01T13:46:14.337Z,78.01
2017-12-01T13:48:41.735Z,78.10
2017-12-01T13:51:09.132Z,77.99
2017-12-01T13:53:36.549Z,77.58
2017-12-01T13:56:03.927Z,77.03
2017-12-01T13:58:31.319Z,77.01
2017-12-01T14:00:58.729Z,77.10
2017-12-01T14:03:26.115Z,77.70
2017-12-01T14:05:53.501Z,78.42
2017-12-01T14:10:47.649Z,78.45
2017-12-01T14:13:15.066Z,78.24
2017-12-01T14:15:42.474Z,78.60
2017-12-01T14:18:09.866Z,78.37
2017-12-01T14:20:37.275Z,78.10
2017-12-01T14:23:04.743Z,79.06
2017-12-01T14:25:32.142Z,80.04
2017-12-01T14:27:59.538Z,81.18
2017-12-01T14:30:27.010Z,82.08
2017-12-01T14:32:54.402Z,81.66
2017-12-01T14:35:21.806Z,81.16
2017-12-01T14:37:49.270Z,80.96
2017-12-01T14:40:16.667Z,80.90
2017-12-01T14:42:44.082Z,81.00
2017-12-01T14:45:11.538Z,80.92
2017-12-01T14:47:38.923Z,81.37
2017-12-01T14:50:06.332Z,81.51
2017-12-01T14:52:33.723Z,82.00
2017-12-01T14:55:01.159Z,81.71
2017-12-01T14:57:28.554Z,81.96
2017-12-01T14:59:55.971Z,81.78
2017-12-01T15:02:23.359Z,81.45
2017-12-01T15:04:50.749Z,81.18
2017-12-01T15:07:18.144Z,80.89
2017-12-01T15:09:45.543Z,80.92
2017-12-01T15:12:12.947Z,80.72
2017-12-01T15:14:40.373Z,81.88
2017-12-01T15:17:07.760Z,82.36
2017-12-01T15:19:35.270Z,82.65
2017-12-01T15:22:02.675Z,83.03
2017-12-01T15:24:30.074Z,83.26
2017-12-01T15:26:57.498Z,83.05
2017-12-01T15:29:24.886Z,82.71
2017-12-01T15:31:52.339Z,82.33
2017-12-01T15:34:19.738Z,81.91
2017-12-01T15:36:47.139Z,81.47
2017-12-01T15:39:14.524Z,80.91
2017-12-01T15:41:41.915Z,80.73
2017-12-01T15:44:09.310Z,81.04
2017-12-01T15:46:36.705Z,80.67
2017-12-01T15:49:04.194Z,80.83
2017-12-01T15:51:31.646Z,80.73
2017-12-01T15:53:59.047Z,80.63
2017-12-01T15:56:26.442Z,81.27
2017-12-01T15:58:53.839Z,81.88
2017-12-01T16:01:21.273Z,81.87
2017-12-01T16:03:48.682Z,81.71
2017-12-01T16:06:16.066Z,81.75
2017-12-01T16:08:43.534Z,81.45
2017-12-01T16:11:10.998Z,81.59
2017-12-01T16:13:38.400Z,81.26
2017-12-01T16:16:05.786Z,82.05
2017-12-01T16:18:33.198Z,82.16
2017-12-01T16:21:00.587Z,82.66
2017-12-01T16:23:28.071Z,82.56
2017-12-01T16:25:55.463Z,82.42
2017-12-01T16:28:22.855Z,82.26
2017-12-01T16:30:50.334Z,82.12
2017-12-01T16:33:17.805Z,82.25
2017-12-01T16:35:45.198Z,81.99
2017-12-01T16:38:12.674Z,81.58
2017-12-01T16:40:40.063Z,82.47
2017-12-01T16:43:07.520Z,82.30
2017-12-01T16:45:34.974Z,82.69
2017-12-01T16:48:02.430Z,83.05
2017-12-01T16:50:29.817Z,83.59
2017-12-01T16:52:57.210Z,82.76
2017-12-01T16:55:24.699Z,82.05
2017-12-01T16:57:52.086Z,82.69
2017-12-01T17:00:19.478Z,82.95
2017-12-01T17:02:46.963Z,83.44
2017-12-01T17:05:14.418Z,83.35
2017-12-01T17:07:41.802Z,83.54
2017-12-01T17:10:09.264Z,84.16
2017-12-01T17:12:36.687Z,83.82
2017-12-01T17:15:04.090Z,84.54
2017-12-01T17:17:31.510Z,84.68
2017-12-01T17:19:58.894Z,85.91
2017-12-01T17:22:26.307Z,86.43
2017-12-01T17:24:53.817Z,86.27
2017-12-01T17:27:21.167Z,86.43
2017-12-01T17:29:48.575Z,85.99
2017-12-01T17:32:15.974Z,86.28
2017-12-01T17:34:43.386Z,86.44
2017-12-01T17:37:10.783Z,86.10
2017-12-01T17:39:38.190Z,86.10
2017-12-01T17:42:05.582Z,85.71
2017-12-01T17:44:33.006Z,85.23
2017-12-01T17:47:00.398Z,84.67
2017-12-01T17:49:27.806Z,84.47
2017-12-01T17:51:55.261Z,84.06
2017-12-01T17:54:22.674Z,83.63
2017-12-01T17:56:50.071Z,83.21
2017-12-01T17:59:17.530Z,82.88
2017-12-01T18:01:44.929Z,82.32
2017-12-01T18:04:12.327Z,82.28
2017-12-01T18:06:39.720Z,83.10
2017-12-01T18:09:07.154Z,83.34
2017-12-01T18:11:34.610Z,83.63
2017-12-01T18:14:02.054Z,83.56
2017-12-01T18:16:29.451Z,84.27
2017-12-01T18:18:56.858Z,84.41
2017-12-01T18:21:24.246Z,84.65
2017-12-01T18:23:51.685Z,84.71
2017-12-01T18:26:19.146Z,84.72
2017-12-01T18:28:46.607Z,84.76
2017-12-01T18:31:14.010Z,84.41
2017-12-01T18:33:41.437Z,84.77
2017-12-01T18:36:08.871Z,84.26
2017-12-01T18:38:36.266Z,83.97
2017-12-01T18:41:03.683Z,83.53
2017-12-01T18:43:31.087Z,83.63
2017-12-01T18:45:58.614Z,83.67
2017-12-01T18:48:26.010Z,83.54
2017-12-01T18:50:53.418Z,82.95
2017-12-01T18:53:20.826Z,82.68
2017-12-01T18:55:48.305Z,83.03
2017-12-01T18:58:15.764Z,83.03
2017-12-01T19:00:43.193Z,82.46
2017-12-01T19:03:10.589Z,82.11
2017-12-01T19:05:37.995Z,82.24
2017-12-01T19:08:06.650Z,81.96
2017-12-01T19:10:34.078Z,83.75
2017-12-01T19:13:01.529Z,83.85
2017-12-01T19:15:28.990Z,84.05
2017-12-01T19:17:56.374Z,83.67
2017-12-01T19:20:23.779Z,83.12
2017-12-01T19:22:51.174Z,82.68
2017-12-01T19:25:18.571Z,82.33
2017-12-01T19:27:45.982Z,82.00
2017-12-01T19:30:13.385Z,81.42
2017-12-01T19:41:06.911Z,83.42
2017-12-01T19:43:34.398Z,83.42
2017-12-01T19:46:01.799Z,83.43
2017-12-01T19:48:29.190Z,83.11
2017-12-01T19:50:56.590Z,83.46
2017-12-01T19:53:24.015Z,83.01
2017-12-01T19:55:51.427Z,83.00
2017-12-01T19:58:18.831Z,83.03
2017-12-01T20:00:46.229Z,82.48
2017-12-01T20:03:13.755Z,82.00
2017-12-01T20:05:41.203Z,81.57
2017-12-01T20:08:08.664Z,81.57
2017-12-01T20:10:36.056Z,81.58
2017-12-01T20:13:03.510Z,81.94
2017-12-01T20:15:30.906Z,82.06
2017-12-01T20:17:58.293Z,81.95
2017-12-01T20:20:25.688Z,81.40
2017-12-01T20:22:53.175Z,81.33
2017-12-01T20:25:20.565Z,80.99
2017-12-01T20:27:47.985Z,80.70
2017-12-01T20:30:15.394Z,81.06
2017-12-01T20:32:42.806Z,80.51
2017-12-01T20:35:10.305Z,80.55
2017-12-01T20:37:37.729Z,80.17
2017-12-01T20:40:05.246Z,80.28
2017-12-01T20:42:32.874Z,80.08
2017-12-01T20:45:00.395Z,79.87
2017-12-01T20:47:27.799Z,79.78
2017-12-01T20:49:55.193Z,79.38
2017-12-01T21:01:09.839Z,80.55
2017-12-01T21:03:37.298Z,80.24
2017-12-01T21:06:06.251Z,80.92
2017-12-01T21:08:33.658Z,80.98
2017-12-01T21:11:01.081Z,80.76
2017-12-01T21:13:31.842Z,80.85
2017-12-01T21:21:51.843Z,80.86
2017-12-01T21:24:19.401Z,81.25
2017-12-01T21:26:46.799Z,81.98
2017-12-01T21:29:14.195Z,82.67
2017-12-01T21:31:41.594Z,82.66
2017-12-01T21:34:09.002Z,83.47
2017-12-01T21:36:36.495Z,83.43
2017-12-01T21:39:03.898Z,83.35
2017-12-01T21:41:31.278Z,83.39
2017-12-01T21:43:58.674Z,83.70
2017-12-01T21:46:26.112Z,84.01
2017-12-01T21:48:53.511Z,84.46
2017-12-01T21:51:20.897Z,85.00
2017-12-01T21:53:48.334Z,85.29
2017-12-01T21:56:15.735Z,84.99
2017-12-01T21:58:43.127Z,84.82
2017-12-01T22:01:10.516Z,84.22
2017-12-01T22:03:37.962Z,84.33
2017-12-01T22:06:05.418Z,85.09
2017-12-01T22:08:32.818Z,84.76
2017-12-01T22:11:00.215Z,85.19
2017-12-01T22:13:27.612Z,84.72
2017-12-01T22:15:55.007Z,84.20
2017-12-01T22:18:22.415Z,83.34
2017-12-01T22:20:49.809Z,82.87
2017-12-01T22:23:17.213Z,83.14
2017-12-01T22:25:44.597Z,83.39
2017-12-01T22:28:12.005Z,83.80
2017-12-01T22:30:43.686Z,83.18
2017-12-01T22:33:11.189Z,84.00
2017-12-01T22:35:38.706Z,84.27
2017-12-01T22:38:06.144Z,83.99
2017-12-01T22:40:33.595Z,83.16
2017-12-01T22:43:01.050Z,82.86
2017-12-01T22:45:28.442Z,82.33
2017-12-01T22:47:55.854Z,81.94
2017-12-01T22:50:23.250Z,81.26
2017-12-01T22:52:50.646Z,81.14
2017-12-01T22:55:18.042Z,81.04
2017-12-01T22:57:45.484Z,81.05
2017-12-01T23:00:12.959Z,80.86
2017-12-01T23:02:40.359Z,80.91
2017-12-01T23:05:07.867Z,80.97
2017-12-01T23:07:35.251Z,81.77
2017-12-01T23:10:02.663Z,82.00
2017-12-01T23:12:30.058Z,82.64
2017-12-01T23:14:57.461Z,83.09
2017-12-01T23:17:24.854Z,83.42
2017-12-01T23:19:52.258Z,83.22
2017-12-01T23:22:19.737Z,82.76
2017-12-01T23:24:47.127Z,83.00
2017-12-01T23:27:14.513Z,83.26
2017-12-01T23:29:42.010Z,83.02
2017-12-01T23:32:09.419Z,82.98
2017-12-01T23:34:36.828Z,82.82
2017-12-01T23:37:04.219Z,82.52
2017-12-01T23:39:31.638Z,82.23
2017-12-01T23:41:59.025Z,81.76
2017-12-01T23:44:26.430Z,81.89
2017-12-01T23:46:53.900Z,82.07
2017-12-01T23:49:21.296Z,82.05
2017-12-01T23:51:48.794Z,81.54
2017-12-01T23:54:16.258Z,81.22
2017-12-01T23:56:43.654Z,81.94
2017-12-01T23:59:11.067Z,81.91
